Michigan — WDF5344 — position and weather

sailwx.info

Track history (hours):
 
Tides and Currents Weather Stations Pressure Air Temp Water Temp Dewpoint Dewpoint Depression Visibility Wind Speed Wind Dir Waves Ship Positions

Michigan

Owner: GATX Third Aircraft Corporation, San Francisco, CA. More information available from US FCC via Universal Licensing System and Coast Guard Vessel Documentation Center.

Last reported at 2014-Dec-22 20:32 UTC. Time now 2014-Dec-22 21:22 UTC.
Position N 45°39' W 084°28'.

Length 144 m.

Type: Ship (hazmat cat D). MMSI: 303583000.

Date/timePositionNaut miles runAvg speedWind from/ knotsBaromVisibWave heightAir tempDewpointWater temp
2014-Dec-22 20:32N 45°39' W 084°28'0 0.0
2014-Dec-22 19:32N 45°39' W 084°28'0 0.0
2014-Dec-22 18:32N 45°39' W 084°28'0 0.0
2014-Dec-22 17:32N 45°39' W 084°28'0 0.0
2014-Dec-22 16:26N 45°39' W 084°28'0 0.0
2014-Dec-22 15:32N 45°39' W 084°28'0 0.0
2014-Dec-22 14:32N 45°39' W 084°28'0 0.0
2014-Dec-22 13:32N 45°39' W 084°28'0 0.0
2014-Dec-22 12:32N 45°39' W 084°28'0 0.0
2014-Dec-22 11:33N 45°39' W 084°28'0 0.0
2014-Dec-22 10:33N 45°39' W 084°28'0 0.0
2014-Dec-22 09:33N 45°39' W 084°28'0 0.0
2014-Dec-22 08:33N 45°39' W 084°28'0 0.0
2014-Dec-22 07:33N 45°39' W 084°28'3 5.7
2014-Dec-22 07:00N 45°36' W 084°30'3 7.4 150 / 61019.2 5.4 -0.0
2014-Dec-22 06:33N 45°39' W 084°28'0 0.0
2014-Dec-22 05:33N 45°39' W 084°28'0 0.0
2014-Dec-22 04:33N 45°39' W 084°28'0 0.0
2014-Dec-22 03:33N 45°39' W 084°28'0 0.0
2014-Dec-22 02:33N 45°39' W 084°28'0 0.0
2014-Dec-22 01:33N 45°39' W 084°28'0 0.0
2014-Dec-22 00:33N 45°39' W 084°28'0 0.0
2014-Dec-21 23:33N 45°39' W 084°28'0 0.0
2014-Dec-21 22:33N 45°39' W 084°28'0 0.0
2014-Dec-21 21:33N 45°39' W 084°28'0 0.0
2014-Dec-21 20:33N 45°39' W 084°28'0 0.0
2014-Dec-21 19:33N 45°39' W 084°28'0 0.0
2014-Dec-21 18:33N 45°39' W 084°28'2 2.3
2014-Dec-21 17:32N 45°41' W 084°27'10 9.9
2014-Dec-21 16:33N 45°47' W 084°39'1010.0
2014-Dec-21 15:33N 45°50' W 084°52'1010.2
2014-Dec-21 14:33N 45°51' W 085°07'1010.2
2014-Dec-21 13:33N 45°52' W 085°21'1010.0
2014-Dec-21 12:33N 45°53' W 085°36'1010.3
2014-Dec-21 11:33N 45°48' W 085°49'1010.5
2014-Dec-21 10:33N 45°44' W 086°02'1110.5
2014-Dec-21 09:31N 45°38' W 086°16'  
2014-Dec-18 16:00N 45°00' W 087°18'64 9.5 020 / 20 0.5-1.1
2014-Dec-18 09:12N 45°47' W 086°16'710.6
2014-Dec-18 08:33N 45°52' W 086°09'10 9.9
2014-Dec-18 07:33N 45°54' W 085°55'1010.3
2014-Dec-18 06:33N 45°54' W 085°40'1010.3
2014-Dec-18 05:33N 45°53' W 085°26'1010.2
2014-Dec-18 04:33N 45°51' W 085°11'1010.4
2014-Dec-18 03:33N 45°50' W 084°56'1010.5
2014-Dec-18 02:33N 45°48' W 084°42'1010.4
2014-Dec-18 01:33N 45°43' W 084°29'4 3.8
2014-Dec-18 00:34N 45°39' W 084°28'0 0.0
2014-Dec-17 23:33N 45°39' W 084°28'0 0.0
2014-Dec-17 22:33N 45°39' W 084°28'0 0.0
2014-Dec-17 21:33N 45°39' W 084°28'0 0.0
2014-Dec-17 20:33N 45°39' W 084°28'0 0.0
2014-Dec-17 19:33N 45°39' W 084°28'0 0.0
2014-Dec-17 18:33N 45°39' W 084°28'0 0.0
2014-Dec-17 17:33N 45°39' W 084°28'0 0.0
2014-Dec-17 16:33N 45°39' W 084°28'0 0.0
2014-Dec-17 15:33N 45°39' W 084°28'0 0.0
2014-Dec-17 14:33N 45°39' W 084°28'0 0.0
2014-Dec-17 13:33N 45°39' W 084°28'0 0.0
2014-Dec-17 12:33N 45°39' W 084°28'0 0.0
2014-Dec-17 11:33N 45°39' W 084°28'0 0.0
2014-Dec-17 10:33N 45°39' W 084°28'0 0.0
2014-Dec-17 09:33N 45°39' W 084°28'0 0.0
2014-Dec-17 08:33N 45°39' W 084°28'0 0.0
2014-Dec-17 07:33N 45°39' W 084°28'0 0.0
2014-Dec-17 06:33N 45°39' W 084°28'0 0.0
2014-Dec-17 05:33N 45°39' W 084°28'0 0.0
2014-Dec-17 04:33N 45°39' W 084°28'0 0.0
2014-Dec-17 03:33N 45°39' W 084°28'0 0.0
2014-Dec-17 02:33N 45°39' W 084°28'2 2.0
2014-Dec-17 01:33N 45°41' W 084°27'9 9.1
2014-Dec-17 00:33N 45°40' W 084°14'260 7.3
2014-Dec-15 13:00N 41°24' W 083°12'   200 / 151017.9 4.4
Track history (hours):
 
Tides and Currents Weather Stations Pressure Air Temp Water Temp Dewpoint Dewpoint Depression Visibility Wind Speed Wind Dir Waves Ship Positions

Michigan

Owner: GATX Third Aircraft Corporation, San Francisco, CA. More information available from US FCC via Universal Licensing System and Coast Guard Vessel Documentation Center.

Last reported at 2014-Dec-22 20:32 UTC. Time now 2014-Dec-22 21:22 UTC.
Position N 45°39' W 084°28'.

Length 144 m.

Type: Ship (hazmat cat D). MMSI: 303583000.

Date/timePositionNaut miles runAvg speedWind from/ knotsBaromVisibWave heightAir tempDewpointWater temp
2014-Dec-22 20:32N 45°39' W 084°28'0 0.0
2014-Dec-22 19:32N 45°39' W 084°28'0 0.0
2014-Dec-22 18:32N 45°39' W 084°28'0 0.0
2014-Dec-22 17:32N 45°39' W 084°28'0 0.0
2014-Dec-22 16:26N 45°39' W 084°28'0 0.0
2014-Dec-22 15:32N 45°39' W 084°28'0 0.0
2014-Dec-22 14:32N 45°39' W 084°28'0 0.0
2014-Dec-22 13:32N 45°39' W 084°28'0 0.0
2014-Dec-22 12:32N 45°39' W 084°28'0 0.0
2014-Dec-22 11:33N 45°39' W 084°28'0 0.0
2014-Dec-22 10:33N 45°39' W 084°28'0 0.0
2014-Dec-22 09:33N 45°39' W 084°28'0 0.0
2014-Dec-22 08:33N 45°39' W 084°28'0 0.0
2014-Dec-22 07:33N 45°39' W 084°28'3 5.7
2014-Dec-22 07:00N 45°36' W 084°30'3 7.4 150 / 61019.2 5.4 -0.0
2014-Dec-22 06:33N 45°39' W 084°28'0 0.0
2014-Dec-22 05:33N 45°39' W 084°28'0 0.0
2014-Dec-22 04:33N 45°39' W 084°28'0 0.0
2014-Dec-22 03:33N 45°39' W 084°28'0 0.0
2014-Dec-22 02:33N 45°39' W 084°28'0 0.0
2014-Dec-22 01:33N 45°39' W 084°28'0 0.0
2014-Dec-22 00:33N 45°39' W 084°28'0 0.0
2014-Dec-21 23:33N 45°39' W 084°28'0 0.0
2014-Dec-21 22:33N 45°39' W 084°28'0 0.0
2014-Dec-21 21:33N 45°39' W 084°28'0 0.0
2014-Dec-21 20:33N 45°39' W 084°28'0 0.0
2014-Dec-21 19:33N 45°39' W 084°28'0 0.0
2014-Dec-21 18:33N 45°39' W 084°28'2 2.3
2014-Dec-21 17:32N 45°41' W 084°27'10 9.9
2014-Dec-21 16:33N 45°47' W 084°39'1010.0
2014-Dec-21 15:33N 45°50' W 084°52'1010.2
2014-Dec-21 14:33N 45°51' W 085°07'1010.2
2014-Dec-21 13:33N 45°52' W 085°21'1010.0
2014-Dec-21 12:33N 45°53' W 085°36'1010.3
2014-Dec-21 11:33N 45°48' W 085°49'1010.5
2014-Dec-21 10:33N 45°44' W 086°02'1110.5
2014-Dec-21 09:31N 45°38' W 086°16'  
2014-Dec-18 16:00N 45°00' W 087°18'64 9.5 020 / 20 0.5-1.1
2014-Dec-18 09:12N 45°47' W 086°16'710.6
2014-Dec-18 08:33N 45°52' W 086°09'10 9.9
2014-Dec-18 07:33N 45°54' W 085°55'1010.3
2014-Dec-18 06:33N 45°54' W 085°40'1010.3
2014-Dec-18 05:33N 45°53' W 085°26'1010.2
2014-Dec-18 04:33N 45°51' W 085°11'1010.4
2014-Dec-18 03:33N 45°50' W 084°56'1010.5
2014-Dec-18 02:33N 45°48' W 084°42'1010.4
2014-Dec-18 01:33N 45°43' W 084°29'4 3.8
2014-Dec-18 00:34N 45°39' W 084°28'0 0.0
2014-Dec-17 23:33N 45°39' W 084°28'0 0.0
2014-Dec-17 22:33N 45°39' W 084°28'0 0.0
2014-Dec-17 21:33N 45°39' W 084°28'0 0.0
2014-Dec-17 20:33N 45°39' W 084°28'0 0.0
2014-Dec-17 19:33N 45°39' W 084°28'0 0.0
2014-Dec-17 18:33N 45°39' W 084°28'0 0.0
2014-Dec-17 17:33N 45°39' W 084°28'0 0.0
2014-Dec-17 16:33N 45°39' W 084°28'0 0.0
2014-Dec-17 15:33N 45°39' W 084°28'0 0.0
2014-Dec-17 14:33N 45°39' W 084°28'0 0.0
2014-Dec-17 13:33N 45°39' W 084°28'0 0.0
2014-Dec-17 12:33N 45°39' W 084°28'0 0.0
2014-Dec-17 11:33N 45°39' W 084°28'0 0.0
2014-Dec-17 10:33N 45°39' W 084°28'0 0.0
2014-Dec-17 09:33N 45°39' W 084°28'0 0.0
2014-Dec-17 08:33N 45°39' W 084°28'0 0.0
2014-Dec-17 07:33N 45°39' W 084°28'0 0.0
2014-Dec-17 06:33N 45°39' W 084°28'0 0.0
2014-Dec-17 05:33N 45°39' W 084°28'0 0.0
2014-Dec-17 04:33N 45°39' W 084°28'0 0.0
2014-Dec-17 03:33N 45°39' W 084°28'0 0.0
2014-Dec-17 02:33N 45°39' W 084°28'2 2.0
2014-Dec-17 01:33N 45°41' W 084°27'9 9.1
2014-Dec-17 00:33N 45°40' W 084°14'260 7.3
2014-Dec-15 13:00N 41°24' W 083°12'   200 / 151017.9 4.4

Dump ship's entire track history